Omaha, Arkansas
Current Conditions -  °F | °C
As of 2:15 AM on Sunday 21 Dec 2014 (Local Time) from KBBG Reporting Station
Overcast Overcast  
Wind Chill: 41°   Ceiling: 2600
Heat Index: 41°   Visibility: 10mi
Dew Point: 36°   Wind: 0mph
Humidity: 81%   Direction: NA
Pressure: 30.17"   Gusts: NA
Location:  36.45°N, 93.19°W
Report Text: KBBG 210815Z AUTO 00000KT 10SM OVC026 05/02 A3017 RMK AO2
Loading
Personal Weather Stations






























Interactive Weather Map New forecast layout! Learn more

10-Day Weather Forecast

Advertisements
Track Severe Weather on mobile